Pireps
You are here: Olympic Virtual Pireps

Flight OLY902

  • Submitted By: Stavros Sarikas
  • Departure Airport: Eleftherios Venizelos International Airport (LGAV)
  • Arrival Airport: Thessaloniki Macedonia International Airport (LGTS)
  • Aircraft: A320-200 (SX-OAT)
  • Flight Time: 00.52
  • Date Submitted: 17/08/2017
  • Route: NEVRA Z507 OSMOS
  • Status: Accepted
Flight Details
Gross Revenue:
(116 load / € 60.00 per unit
€ 6, 960.00
Fuel Cost:
(-704 fuel used @ 0.19 / unit)
(€ -133.76)

Additional Log Information:

View Log

Aircraft Used in flight is Airbus A320 British Airways G-EUUU
22:59 Boarding
22:59 Beacon Lights ON at 320 Feet
22:59 Brakes are On
22:59 Navigation Lights ON at 320 Feet
23:00 In Air Refuel Suspected
23:04 Engine 2 Started
23:05 Engine 1 Started
23:06 Brakes are Released
23:06 Pushing back
23:07 Flaps 3 Selected at 320ft and 6kts
23:07 Taxi Lights ON at 320 Feet
23:09 Landing Lights ON at 320 AGL
23:09 Strobe Lights ON at 320 Feet
23:10 You Took off @ 146 Knots and Flaps at Position 3 With a heading of 37 Degrees
Departure Weather LGAV 171950Z 35009KT CAVOK 29/08 Q1012 NOSIG
Departure Coordinates 37.9390698266667/ 23.957920179076
Takeoff Weight=59680KG Fuel Weight=4837KG
23:10 Paused
23:10 Unpaused
23:10 Landing Gear Up @ 156 Knots and 390 Feet
23:10 Taxi Lights OFF at 390 Feet
23:11 You exceeded maximum bank angle
23:11 Flaps 2 Selected at 1400ft and 145kts
23:12 Flaps 0 Selected at 1820ft and 188kts
23:14 Above FL100 you need to switch of the landing lights
23:14 Landing Lights OFF at 10300 AGL
23:39 Below 10000 feet you are not allowed to go over 250 knots
23:39 Landing Lights ON at 9770 AGL
23:46 Flaps 1 Selected at 1990ft and 216kts
23:46 Flaps 3 Selected at 1890ft and 194kts
23:46 Landing Gear Down @ 187 Knots and 1880 Feet
23:46 Flaps 4 Selected at 1870ft and 166kts
23:46 Taxi Lights ON at 1860 Feet
23:46 Flaps 5 Selected at 1860ft and 155kts
23:50 You Landed @ 131 Knots with -180 Vertical Speed With a heading of 347 and with 1.6416 G Force
Arrival Weather: LGTS 172020Z 11004KT 9999 FEW035 26/10 Q1013 NOSIG
Arrival Coordinates 40.5122169689106/ 22.9734840597929
Landing Weight=58006KG Fuel Weight=3161KG
23:50 Airplane Bounced
23:50 Airplane Bounced
23:50 Airplane Bounced
23:50 Paused
23:50 Taxiing to gate
23:50 Unpaused
23:51 Paused
23:51 Unpaused
23:51 Airplane Bounced
23:51 Taxiing to gate
23:51 Paused
23:51 Airplane Bounced
23:52 Unpaused
23:52 Airplane Bounced
23:52 Airplane Bounced
23:52 Paused
23:52 Taxiing to gate
Pirep logged with OA Virtual Tracking 1.0.2.3

Route Map